Terminal Aerodrome Forecast
Issued by NWS

Home | Current Version | Previous Version | Text Only | Print | Product List | Glossary On
Versions: 1 2 3 4 5 6 7 8 9 10 11 12 13 14
000
FTUS42 KMLB 232300
TAFLEE
TAF
KLEE 232321Z 2400/2424 05008KT P6SM VCSH FEW020 OVC045
      TEMPO 2400/2402 -SHRA BKN025
     FM240200 VRB03KT P6SM FEW005 SCT040 BKN140
      TEMPO 2409/2412 5SM BR FEW005
     FM241400 02006KT P6SM SCT020 BKN110 BKN250
     FM241900 04006KT P6SM VCTS SCT030CB SCT060 BKN150=

USA.gov is the U.S. government's official web portal to all federal, state and local government web resources and services.